Latest Coastal Weather Observations for Groote Eylandt Airport

IDD60701

Issued at 5:01 pm CST Friday 27 February 2015 (issued every 10 minutes, with the page automatically refreshed every 10 minutes)

About coastal observations | Map of coastal stations | Coastal observations for NT | Marine services | Other Formats
Station Details ID: 014518 Name: GROOTE EYLANDT AIRPORT Lat: -13.97 Lon: 136.46 Height: 13.7 m
Data from the previous 72 hours. | See also: Recent months at Groote Eylandt Airport
Date/Time
CST
Temp

°C
Wind Pressure Rain
since 9am
mm
Weather Cloud Vis
km
Sea
Height
m
Swell
Dir
 
Speed
knots
Gust
knots
hPa Trend Height
m
Period
s
Dir
27/05:00pm 33.5 S 4 6 1003.1 - 0.0 - Partly cloudy 10 - - - -
27/04:30pm 33.0 S 4 6 1002.9 - 0.0 - Partly cloudy 10 - - - -
27/04:00pm 33.7 SSW 8 11 1003.0 - 0.0 - - 10 - - - -
27/03:30pm 33.8 SW 7 10 1003.3 - 0.0 - - 10 - - - -
27/03:00pm 34.0 SW 6 13 1003.3 - 0.0 - - 10 - - - -
27/02:30pm 33.1 SSW 7 11 1003.7 - 0.0 - - 10 - - - -
27/02:00pm 33.0 SW 7 13 1003.8 - 0.0 - Partly cloudy 10 - - - -
27/01:30pm 32.9 SW 8 13 1004.3 - 0.0 - - 10 - - - -
27/01:00pm 32.4 SSW 7 11 1004.9 - 0.0 - - 10 - - - -
27/12:30pm 31.8 SW 7 10 1005.6 - 0.0 - - 10 - - - -
27/12:00pm 31.7 WSW 6 10 1006.2 - 0.0 - - 10 - - - -
27/11:30am 30.9 SSW 7 13 1006.8 - 0.0 - - 10 - - - -
27/11:00am 30.9 SW 6 10 1007.0 - 0.0 - - 10 - - - -
27/10:30am 30.5 SW 5 9 1007.1 - 0.0 - - 10 - - - -
27/10:00am 30.1 WSW 5 7 1007.3 - 0.0 - - 10 - - - -
27/09:30am 29.7 WSW 5 7 1007.5 - 0.0 - - 10 - - - -
27/09:00am 29.4 W 6 9 1007.6 - 1.6 - - 10 - - - -
27/08:30am 29.1 W 6 9 1007.4 - 1.6 - - 10 - - - -
27/08:00am 28.4 WSW 4 8 1007.1 - 1.6 - - 10 - - - -
27/07:30am 26.2 CALM 0 0 1006.7 - 1.6 - - 10 - - - -
27/07:00am 24.7 CALM 0 0 1006.3 - 1.6 - - 10 - - - -
27/06:30am 24.3 SE 1 3 1006.1 - 1.6 - - 10 - - - -
27/06:00am 24.2 CALM 0 0 1005.8 - 1.6 - - 10 - - - -
27/05:30am 24.3 CALM 0 0 1005.5 - 1.6 - - 10 - - - -
27/05:00am 24.5 CALM 0 0 1005.4 - 1.6 - - 10 - - - -
27/04:30am 24.6 CALM 0 0 1005.2 - 1.6 - - 10 - - - -
27/04:00am 24.9 CALM 0 0 1005.2 - 1.6 - - 10 - - - -
27/03:30am 24.9 CALM 0 0 1005.2 - 1.6 - - 10 - - - -
27/03:00am 25.4 CALM 0 0 1005.4 - 1.6 - Partly cloudy 10 - - - -
27/02:30am 25.4 E 3 3 1005.6 - 1.6 - - 10 - - - -
27/02:00am 25.3 CALM 0 3 1005.8 - 1.6 - - 10 - - - -
27/01:30am 24.9 SE 2 4 1006.2 - 1.6 - - 10 - - - -
27/01:00am 25.2 CALM 0 0 1006.3 - 1.6 - - 10 - - - -
27/12:30am 25.2 CALM 0 0 1006.3 - 1.6 - - 10 - - - -
27/12:00am 25.3 CALM 0 0 1006.3 - 1.6 - - 10 - - - -
 
Date/Time
CST
Temp

°C
Wind Pressure Rain
since 9am
mm
Weather Cloud Vis
km
Sea
Height
m
Swell
Dir
 
Speed
knots
Gust
knots
hPa Trend Height
m
Period
s
Dir
26/11:30pm 25.2 CALM 0 0 1006.4 - 1.6 - - 10 - - - -
26/11:00pm 25.6 CALM 0 0 1006.5 - 1.6 - - 10 - - - -
26/10:30pm 25.9 E 3 4 1006.5 - 1.6 - - 10 - - - -
26/10:00pm 26.0 ENE 3 3 1006.5 - 1.6 - - 10 - - - -
26/09:30pm 26.7 CALM 0 0 1006.5 - 1.6 - - 10 - - - -
26/09:00pm 26.8 E 3 4 1006.4 - 1.6 - - 10 - - - -
26/08:30pm 27.0 CALM 0 1 1006.2 - 1.6 - - 10 - - - -
26/08:00pm 27.1 SE 1 4 1006.0 - 1.6 - - 10 - - - -
26/07:30pm 28.0 CALM 0 0 1005.6 - 1.6 - - 10 - - - -
26/07:00pm 28.5 CALM 0 0 1004.9 - 1.6 - - 10 - - - -
26/06:30pm 30.2 WSW 1 3 1004.0 - 1.6 - - 10 - - - -
26/06:00pm 31.6 SSW 1 4 1003.5 - 1.6 - - 10 - - - -
26/05:30pm 31.8 WSW 3 5 1003.5 - 1.6 - - 10 - - - -
26/05:00pm 31.2 WSW 4 6 1003.7 - 1.6 - - 10 - - - -
26/04:30pm 31.6 W 7 10 1003.7 - 1.6 - Partly cloudy 10 - - - -
26/04:00pm 32.1 WSW 6 9 1003.5 - 1.6 - Partly cloudy 10 - - - -
26/03:30pm 32.0 W 7 10 1003.4 - 1.6 - - 10 - - - -
26/03:00pm 32.2 WSW 4 6 1003.5 - 1.6 - Partly cloudy 10 - - - -
26/02:30pm 31.2 W 7 11 1003.8 - 1.6 - - 10 - - - -
26/02:00pm 31.3 W 4 7 1003.9 - 1.6 - - 10 - - - -
26/01:30pm 30.2 W 4 7 1004.6 - 1.6 - - 10 - - - -
26/01:00pm 29.4 WNW 6 8 1005.4 - 1.6 - - 10 - - - -
26/12:30pm 28.4 WNW 5 8 1006.1 - 1.6 - - 10 - - - -
26/12:00pm 27.3 ESE 2 4 1006.9 - 1.6 Rain Cloudy 10 - - - -
26/11:30am 26.5 NW 3 5 1007.4 - 1.6 - - 10 - - - -
26/11:00am 25.1 WSW 3 4 1007.6 - 1.6 - Partly cloudy 10 - - - -
26/10:30am 24.1 CALM 0 0 1006.3 - 1.6 - Partly cloudy 10 - - - -
26/10:00am 23.6 CALM 0 0 1006.8 - 1.6 - Cloudy 10 - - - -
26/09:30am 23.5 CALM 0 0 1008.4 - 1.2 - Cloudy 10 - - - -
26/09:00am 23.3 NW 2 4 1009.3 - 9.2 Showers Cloudy 9 - - - -
26/08:30am 22.8 CALM 0 0 1009.3 - 8.0 - Partly cloudy 8 - - - -
26/08:00am 22.7 SE 3 5 1008.7 - 7.0 - - 10 - - - -
26/07:30am 22.5 ESE 4 6 1008.8 - 6.4 - Partly cloudy 10 - - - -
26/07:24am 22.6 SE 5 8 1008.7 - 6.4 - Partly cloudy 8 - - - -
26/07:00am 22.6 SSW 5 10 1009.2 - 3.8 - Partly cloudy 3 - - - -
26/06:56am 22.6 S 6 10 1009.4 - 2.8 - Partly cloudy 5 - - - -
26/06:30am 23.8 S 14 26 1009.0 - 0.0 - Partly cloudy 10 - - - -
26/06:22am 25.9 S 5 26 1008.6 - 0.0 - Partly cloudy 10 - - - -
26/06:00am 26.9 CALM 0 0 1006.9 - 0.0 - Mostly cloudy 10 - - - -
26/05:30am 26.9 NNW 2 4 1006.5 - 0.0 - Partly cloudy 10 - - - -
26/05:00am 26.8 CALM 0 0 1006.0 - 0.0 - Partly cloudy 6 - - - -
26/04:40am 27.0 CALM 0 0 1005.4 - 0.0 - Partly cloudy 10 - - - -
26/04:30am 26.8 CALM 0 0 1005.5 - 0.0 - Partly cloudy 10 - - - -
26/04:16am 26.7 CALM 0 0 1005.2 - 0.0 - Partly cloudy 10 - - - -
26/04:00am 26.8 CALM 0 0 1005.3 - 0.0 - Partly cloudy 10 - - - -
26/03:30am 26.7 E 4 4 1005.0 - 0.0 - Partly cloudy 10 - - - -
26/03:00am 27.2 ENE 3 4 1005.2 - 0.0 - - 10 - - - -
26/02:30am 27.0 NE 4 5 1005.5 - 0.0 - Partly cloudy 10 - - - -
26/02:00am 26.6 ESE 3 4 1005.8 - 0.0 - - 10 - - - -
26/01:30am 27.1 CALM 0 0 1006.2 - 0.0 - - 10 - - - -
26/01:00am 27.7 NNE 3 4 1006.3 - 0.0 - - 10 - - - -
26/12:30am 27.6 NE 2 4 1006.3 - 0.0 - - 10 - - - -
26/12:00am 27.8 CALM 0 0 1006.6 - 0.0 - - 10 - - - -
 
Date/Time
CST
Temp

°C
Wind Pressure Rain
since 9am
mm
Weather Cloud Vis
km
Sea
Height
m
Swell
Dir
 
Speed
knots
Gust
knots
hPa Trend Height
m
Period
s
Dir
25/11:30pm 27.6 ESE 3 4 1006.9 - 0.0 - - 10 - - - -
25/11:00pm 28.4 NE 3 5 1007.1 - 0.0 - - 10 - - - -
25/10:30pm 28.6 NE 5 6 1007.1 - 0.0 - - 10 - - - -
25/10:00pm 28.7 ESE 4 5 1007.1 - 0.0 - - 10 - - - -
25/09:30pm 29.3 ENE 5 7 1007.2 - 0.0 - - 10 - - - -
25/09:00pm 29.7 ENE 6 8 1007.1 - 0.0 - Mostly cloudy 10 - - - -
25/08:30pm 30.2 ENE 6 7 1006.8 - 0.0 - Partly cloudy 10 - - - -
25/08:00pm 30.5 ENE 7 8 1006.4 - 0.0 - Cloudy 10 - - - -
25/07:30pm 31.1 ESE 3 8 1005.8 - 0.0 - Cloudy 10 - - - -
25/07:00pm 31.3 SE 3 4 1005.4 - 0.0 - Partly cloudy 10 - - - -
25/06:30pm 31.7 S 4 6 1004.6 - 0.0 - Partly cloudy 10 - - - -
25/06:00pm 32.6 S 5 7 1004.2 - 0.0 - Cloudy 10 - - - -
25/05:30pm 33.0 SSW 5 9 1003.8 - 0.0 - Partly cloudy 10 - - - -
25/05:00pm 33.2 SSW 5 9 1003.8 - 0.0 - Partly cloudy 10 - - - -
25/04:30pm 33.4 WSW 6 10 1003.8 - 0.0 - - 10 - - - -
25/04:00pm 33.4 SW 7 11 1004.4 - 0.0 - Partly cloudy 10 - - - -
25/03:30pm 33.5 SSW 7 10 1004.6 - 0.0 - Partly cloudy 10 - - - -
25/03:00pm 33.2 SW 7 11 1004.9 - 0.0 - Mostly clear 10 - - - -
25/02:30pm 31.9 WSW 7 11 1005.5 - 0.0 - Partly cloudy 10 - - - -
25/02:00pm 33.0 SW 8 15 1005.9 - 0.0 - Partly cloudy 10 - - - -
25/01:30pm 32.6 SW 8 12 1006.2 - 0.0 - Partly cloudy 10 - - - -
25/01:00pm 32.1 WSW 7 13 1006.8 - 0.0 - - 10 - - - -
25/12:30pm 31.7 WSW 7 11 1007.4 - 0.0 - Partly cloudy 10 - - - -
25/12:00pm 31.3 W 8 11 1007.9 - 0.0 - - 10 - - - -
25/11:30am 31.3 W 8 11 1008.3 - 0.0 - - 10 - - - -
25/11:00am 31.4 W 8 12 1008.6 - 0.0 - - 10 - - - -
25/10:30am 31.1 W 8 12 1008.8 - 0.0 - - 10 - - - -
25/10:00am 31.6 W 5 10 1009.0 - 0.0 - - 10 - - - -
25/09:30am 30.7 SW 4 6 1009.4 - 0.0 - Partly cloudy 10 - - - -
25/09:00am 29.8 W 2 5 1009.5 - 0.0 - Mostly cloudy 10 - - - -
25/08:30am 29.1 SW 4 6 1009.5 - 0.0 - Partly cloudy 10 - - - -
25/08:00am 28.4 CALM 0 0 1009.3 - 0.0 - Partly cloudy 10 - - - -
25/07:45am 27.0 CALM 0 0 1009.1 - 0.0 - Partly cloudy 10 - - - -
25/07:34am 26.4 CALM 0 0 1009.0 - 0.0 - Partly cloudy 5 - - - -
25/07:30am 26.1 CALM 0 0 1009.1 - 0.0 - Partly cloudy 10 - - - -
25/07:29am 26.1 CALM 0 0 1009.1 - 0.0 - Partly cloudy 10 - - - -
25/07:12am 25.6 CALM 0 0 1008.8 - 0.0 - - 5 - - - -
25/07:00am 25.5 CALM 0 0 1008.6 - 0.0 - - 10 - - - -
25/06:38am 25.3 CALM 0 0 1008.6 - 0.0 - - 10 - - - -
25/06:30am 25.3 CALM 0 0 1008.6 - 0.0 - - 10 - - - -
25/06:15am 25.1 CALM 0 0 1008.4 - 0.0 - - 4 - - - -
25/06:07am 25.2 CALM 0 2 1008.3 - 0.0 - - 10 - - - -
25/06:00am 25.1 ESE 2 3 1008.2 - 0.0 - Partly cloudy 10 - - - -
25/05:51am 25.1 SE 1 3 1008.2 - 0.0 - - 5 - - - -
25/05:46am 25.1 CALM 0 0 1008.1 - 0.0 - - 10 - - - -
25/05:30am 25.1 CALM 0 3 1008.0 - 0.0 - - 0.3 - - - -
25/05:00am 25.1 ESE 1 4 1007.8 - 0.0 - - 0.5 - - - -
25/04:30am 25.5 CALM 0 0 1007.5 - 0.0 - - 0.5 - - - -
25/04:00am 25.7 ENE 1 3 1007.8 - 0.0 - - 3 - - - -
25/03:58am 25.7 ENE 2 3 1007.7 - 0.0 - - 5 - - - -
25/03:50am 25.7 ENE 3 4 1007.8 - 0.0 - - 10 - - - -
25/03:30am 25.7 CALM 0 0 1007.6 - 0.0 - - 0.2 - - - -
25/03:21am 25.7 CALM 0 0 1007.7 - 0.0 - - 5 - - - -
25/03:08am 25.7 CALM 0 3 1007.7 - 0.0 - - 10 - - - -
25/03:00am 25.7 SE 3 4 1007.7 - 0.0 - Mostly clear 10 - - - -
25/02:48am 25.7 E 1 4 1008.1 - 0.0 - - 4 - - - -
25/02:46am 25.7 CALM 0 0 1008.0 - 0.0 - - 9 - - - -
25/02:30am 26.1 CALM 0 0 1007.9 - 0.0 - - 1 - - - -
25/02:19am 26.1 CALM 0 0 1008.0 - 0.0 - - 5 - - - -
25/02:14am 26.1 CALM 0 0 1008.1 - 0.0 - - 9 - - - -
25/02:03am 26.0 ESE 2 3 1008.2 - 0.0 - - 5 - - - -
25/02:00am 26.1 ESE 2 3 1008.2 - 0.0 - - 6 - - - -
25/01:50am 26.1 ESE 3 4 1008.2 - 0.0 - - 10 - - - -
25/01:30am 26.1 SE 1 3 1008.4 - 0.0 - - 0.2 - - - -
25/01:18am 26.2 E 3 4 1008.3 - 0.0 - - 4 - - - -
25/01:00am 26.5 ENE 3 3 1008.4 - 0.0 - - 10 - - - -
25/12:30am 26.6 ENE 4 5 1008.2 - 0.0 - Partly cloudy 10 - - - -
25/12:00am 26.6 ESE 3 4 1008.3 - 0.0 - Partly cloudy 10 - - - -
 
Date/Time
CST
Temp

°C
Wind Pressure Rain
since 9am
mm
Weather Cloud Vis
km
Sea
Height
m
Swell
Dir
 
Speed
knots
Gust
knots
hPa Trend Height
m
Period
s
Dir
24/11:30pm 26.5 ESE 4 5 1008.5 - 0.0 - - 10 - - - -
24/11:11pm 26.4 ESE 4 5 1008.5 - 0.0 - Partly cloudy 10 - - - -
24/11:00pm 26.5 SE 3 5 1008.5 - 0.0 - Partly cloudy 3 - - - -
24/10:43pm 26.3 SE 4 5 1008.5 - 0.0 - - 5 - - - -
24/10:30pm 26.5 SSE 1 4 1008.4 - 0.0 - - 10 - - - -
24/10:08pm 26.5 CALM 0 0 1008.1 - 0.0 - - 10 - - - -
24/10:00pm 26.9 CALM 0 0 1008.1 - 0.0 - - 10 - - - -
24/09:30pm 27.1 CALM 0 0 1007.8 - 0.0 - - 0.1 - - - -
24/09:00pm 28.0 WNW 3 4 1007.4 - 0.0 - - 0.1 - - - -
24/08:30pm 28.2 N 3 5 1007.2 - 0.0 - - 2 - - - -
24/08:16pm 28.3 NNE 3 4 1007.0 - 0.0 - - 5 - - - -
24/08:00pm 28.2 NE 3 4 1006.8 - 0.0 - - 10 - - - -
24/07:30pm 28.6 ENE 4 6 1006.6 - 0.0 - - 10 - - - -
24/07:00pm 29.1 ENE 4 6 1006.7 - 0.0 - - 10 - - - -
24/06:30pm 29.5 ESE 5 7 1006.6 - 0.0 - - 10 - - - -
24/06:00pm 30.2 ESE 6 10 1006.7 - 0.0 - - 10 - - - -
24/05:30pm 30.6 E 9 14 1006.9 - 0.0 - Partly cloudy 10 - - - -

Other Formats:

Comma delimited format used in spreadsheet applications
http://www.bom.gov.au/fwo/IDD60701/IDD60701.94153.axf

JavaScript Object Notation format (JSON) in row-major order
http://www.bom.gov.au/fwo/IDD60701/IDD60701.94153.json